createdAt,value
2022-09-07T00:00:00.000Z,0.0
2022-09-07T00:02:00.000Z,0.0
2022-09-07T00:04:00.000Z,0.0
2022-09-07T00:06:00.000Z,0.0
2022-09-07T00:08:00.000Z,0.0
2022-09-07T00:10:00.000Z,0.0
2022-09-07T00:12:00.000Z,0.0
2022-09-07T00:14:00.000Z,0.0
2022-09-07T00:16:00.000Z,0.0
2022-09-07T00:18:00.000Z,0.0
2022-09-07T00:20:00.000Z,0.0
2022-09-07T00:22:00.000Z,0.0
2022-09-07T00:24:00.000Z,0.0
2022-09-07T00:26:00.000Z,0.0
2022-09-07T00:28:00.000Z,0.0
2022-09-07T00:30:00.000Z,0.0
2022-09-07T00:32:00.000Z,0.0
2022-09-07T00:34:00.000Z,0.0
2022-09-07T00:36:00.000Z,0.0
2022-09-07T00:38:00.000Z,0.0
2022-09-07T00:40:00.000Z,0.0
2022-09-07T00:42:00.000Z,0.0
2022-09-07T00:44:00.000Z,0.0
2022-09-07T00:46:00.000Z,0.0
2022-09-07T00:48:00.000Z,0.0
2022-09-07T00:50:00.000Z,0.0
2022-09-07T00:52:00.000Z,0.0
2022-09-07T00:54:00.000Z,0.0
2022-09-07T00:56:00.000Z,0.0
2022-09-07T00:58:00.000Z,0.0
2022-09-07T01:00:00.000Z,0.0
2022-09-07T01:02:00.000Z,0.0
2022-09-07T01:04:00.000Z,0.0
2022-09-07T01:06:00.000Z,0.0
2022-09-07T01:08:00.000Z,0.0
2022-09-07T01:10:00.000Z,0.0
2022-09-07T01:12:00.000Z,0.0
2022-09-07T01:14:00.000Z,0.0
2022-09-07T01:16:00.000Z,0.0
2022-09-07T01:18:00.000Z,0.0
2022-09-07T01:20:00.000Z,0.0
2022-09-07T01:22:00.000Z,0.0
2022-09-07T01:24:00.000Z,0.0
2022-09-07T01:26:00.000Z,0.0
2022-09-07T01:28:00.000Z,0.0
2022-09-07T01:30:00.000Z,0.0
2022-09-07T01:32:00.000Z,0.0
2022-09-07T01:34:00.000Z,0.0
2022-09-07T01:36:00.000Z,0.0
2022-09-07T01:38:00.000Z,0.0
2022-09-07T01:40:00.000Z,0.0
2022-09-07T01:42:00.000Z,0.0
2022-09-07T01:44:00.000Z,0.0
2022-09-07T01:46:00.000Z,0.0
2022-09-07T01:48:00.000Z,0.0
2022-09-07T01:50:00.000Z,0.0
2022-09-07T01:52:00.000Z,0.0
2022-09-07T01:54:00.000Z,0.0
2022-09-07T01:56:00.000Z,0.0
2022-09-07T01:58:00.000Z,0.0
2022-09-07T02:00:00.000Z,0.0
2022-09-07T02:02:00.000Z,0.0
2022-09-07T02:04:00.000Z,0.0
2022-09-07T02:06:00.000Z,0.0
2022-09-07T02:08:00.000Z,0.0
2022-09-07T02:10:00.000Z,0.0
2022-09-07T02:12:00.000Z,0.0
2022-09-07T02:14:00.000Z,0.0
2022-09-07T02:16:00.000Z,0.0
2022-09-07T02:18:00.000Z,0.0
2022-09-07T02:20:00.000Z,0.0
2022-09-07T02:22:00.000Z,0.0
2022-09-07T02:24:00.000Z,0.0
2022-09-07T02:26:00.000Z,0.0
2022-09-07T02:28:00.000Z,0.0
2022-09-07T02:30:00.000Z,0.0
2022-09-07T02:32:00.000Z,0.0
2022-09-07T02:34:00.000Z,0.0
2022-09-07T02:36:00.000Z,0.0
2022-09-07T02:38:00.000Z,0.0
2022-09-07T02:40:00.000Z,0.0
2022-09-07T02:42:00.000Z,0.0
2022-09-07T02:44:00.000Z,0.0
2022-09-07T02:46:00.000Z,0.0
2022-09-07T02:48:00.000Z,0.0
2022-09-07T02:50:00.000Z,0.0
2022-09-07T02:52:00.000Z,0.0
2022-09-07T02:54:00.000Z,0.0
2022-09-07T02:56:00.000Z,0.0
2022-09-07T02:58:00.000Z,0.0
2022-09-07T03:00:00.000Z,0.0
2022-09-07T03:02:00.000Z,0.0
2022-09-07T03:04:00.000Z,0.0
2022-09-07T03:06:00.000Z,0.0
2022-09-07T03:08:00.000Z,0.0
2022-09-07T03:10:00.000Z,0.0
2022-09-07T03:12:00.000Z,0.0
2022-09-07T03:14:00.000Z,0.0
2022-09-07T03:16:00.000Z,0.0
2022-09-07T03:18:00.000Z,0.0
2022-09-07T03:20:00.000Z,0.0
2022-09-07T03:22:00.000Z,0.0
2022-09-07T03:24:00.000Z,0.0
2022-09-07T03:26:00.000Z,0.0
2022-09-07T03:28:00.000Z,0.0
2022-09-07T03:30:00.000Z,0.0
2022-09-07T03:32:00.000Z,0.0
2022-09-07T03:34:00.000Z,0.0
2022-09-07T03:36:00.000Z,0.0
2022-09-07T03:38:00.000Z,0.0
2022-09-07T03:40:00.000Z,0.0
2022-09-07T03:42:00.000Z,0.0
2022-09-07T03:44:00.000Z,0.0
2022-09-07T03:46:00.000Z,0.0
2022-09-07T03:48:00.000Z,0.0
2022-09-07T03:50:00.000Z,0.0
2022-09-07T03:52:00.000Z,0.0
2022-09-07T03:54:00.000Z,0.0
2022-09-07T03:56:00.000Z,0.0
2022-09-07T03:58:00.000Z,0.0
2022-09-07T04:00:00.000Z,0.0
2022-09-07T04:02:00.000Z,0.0
2022-09-07T04:04:00.000Z,0.0
2022-09-07T04:06:00.000Z,0.0
2022-09-07T04:08:00.000Z,0.0
2022-09-07T04:10:00.000Z,0.0
2022-09-07T04:12:00.000Z,0.0
2022-09-07T04:14:00.000Z,0.0
2022-09-07T04:16:00.000Z,0.0
2022-09-07T04:18:00.000Z,0.0
2022-09-07T04:20:00.000Z,0.0
2022-09-07T04:22:00.000Z,0.0
2022-09-07T04:24:00.000Z,0.0
2022-09-07T04:26:00.000Z,0.47
2022-09-07T04:28:00.000Z,0.63
2022-09-07T04:30:00.000Z,1.02
2022-09-07T04:32:00.000Z,1.5
2022-09-07T04:34:00.000Z,1.58
2022-09-07T04:36:00.000Z,1.73
2022-09-07T04:38:00.000Z,2.21
2022-09-07T04:40:00.000Z,2.44
2022-09-07T04:42:00.000Z,2.84
2022-09-07T04:44:00.000Z,3.16
2022-09-07T04:46:00.000Z,3.71
2022-09-07T04:48:00.000Z,3.55
2022-09-07T04:50:00.000Z,3.79
2022-09-07T04:52:00.000Z,3.71
2022-09-07T04:54:00.000Z,3.47
2022-09-07T04:56:00.000Z,2.52
2022-09-07T04:58:00.000Z,2.84
2022-09-07T05:00:00.000Z,3.0
2022-09-07T05:02:00.000Z,3.0
2022-09-07T05:04:00.000Z,2.6
2022-09-07T05:06:00.000Z,2.13
2022-09-07T05:08:00.000Z,2.29
2022-09-07T05:10:00.000Z,3.16
2022-09-07T05:12:00.000Z,4.42
2022-09-07T05:14:00.000Z,5.45
2022-09-07T05:16:00.000Z,5.84
2022-09-07T05:18:00.000Z,6.87
2022-09-07T05:20:00.000Z,9.4
2022-09-07T05:22:00.000Z,11.92
2022-09-07T05:24:00.000Z,13.66
2022-09-07T05:26:00.000Z,14.06
2022-09-07T05:28:00.000Z,13.98
2022-09-07T05:32:00.000Z,11.29
2022-09-07T05:36:00.000Z,8.37
2022-09-07T05:38:00.000Z,7.42
2022-09-07T05:40:00.000Z,6.47
2022-09-07T05:42:00.000Z,5.84
2022-09-07T05:46:00.000Z,5.29
2022-09-07T05:48:00.000Z,5.53
2022-09-07T05:50:00.000Z,5.37
2022-09-07T05:52:00.000Z,4.81
2022-09-07T05:54:00.000Z,4.5
2022-09-07T05:56:00.000Z,4.89
2022-09-07T05:58:00.000Z,5.21
2022-09-07T06:00:00.000Z,4.89
2022-09-07T06:02:00.000Z,4.74
2022-09-07T06:04:00.000Z,5.29
2022-09-07T06:06:00.000Z,5.76
2022-09-07T06:08:00.000Z,6.24
2022-09-07T06:12:00.000Z,6.87
2022-09-07T06:14:00.000Z,6.87
2022-09-07T06:16:00.000Z,6.95
2022-09-07T06:18:00.000Z,7.42
2022-09-07T06:20:00.000Z,8.37
2022-09-07T06:22:00.000Z,9.4
2022-09-07T06:24:00.000Z,10.66
2022-09-07T06:26:00.000Z,12.16
2022-09-07T06:28:00.000Z,13.5
2022-09-07T06:30:00.000Z,14.14
2022-09-07T06:34:00.000Z,12.32
2022-09-07T06:36:00.000Z,10.82
2022-09-07T06:38:00.000Z,9.95
2022-09-07T06:40:00.000Z,9.71
2022-09-07T06:42:00.000Z,9.55
2022-09-07T06:44:00.000Z,10.19
2022-09-07T06:48:00.000Z,13.03
2022-09-07T06:50:00.000Z,15.72
2022-09-07T06:52:00.000Z,20.61
2022-09-07T06:56:00.000Z,42.02
2022-09-07T06:58:00.000Z,57.67
2022-09-07T07:00:00.000Z,69.04
2022-09-07T07:02:00.000Z,73.94
2022-09-07T07:04:00.000Z,71.02
2022-09-07T07:06:00.000Z,67.07
2022-09-07T07:08:00.000Z,60.04
2022-09-07T07:10:00.000Z,55.3
2022-09-07T07:12:00.000Z,51.74
2022-09-07T07:14:00.000Z,51.42
2022-09-07T07:16:00.000Z,54.19
2022-09-07T07:18:00.000Z,58.77
2022-09-07T07:20:00.000Z,61.7
2022-09-07T07:22:00.000Z,62.64
2022-09-07T07:24:00.000Z,62.25
2022-09-07T07:26:00.000Z,57.82
2022-09-07T07:30:00.000Z,40.13
2022-09-07T07:32:00.000Z,31.04
2022-09-07T07:34:00.000Z,27.49
2022-09-07T07:36:00.000Z,29.38
2022-09-07T07:40:00.000Z,35.78
2022-09-07T07:42:00.000Z,36.18
2022-09-07T07:44:00.000Z,37.2
2022-09-07T07:46:00.000Z,39.97
2022-09-07T07:48:00.000Z,49.53
2022-09-07T07:54:00.000Z,73.55
2022-09-07T07:56:00.000Z,73.62
2022-09-07T07:58:00.000Z,76.47
2022-09-07T08:00:00.000Z,90.77
2022-09-07T08:02:00.000Z,122.76
2022-09-07T08:04:00.000Z,159.42
2022-09-07T08:06:00.000Z,179.49
2022-09-07T08:08:00.000Z,185.96
2022-09-07T08:10:00.000Z,184.38
2022-09-07T08:12:00.000Z,189.05
2022-09-07T08:14:00.000Z,171.59
2022-09-07T08:16:00.000Z,171.59
2022-09-07T08:18:00.000Z,175.06
2022-09-07T08:20:00.000Z,177.67
2022-09-07T08:22:00.000Z,176.48
2022-09-07T08:24:00.000Z,168.82
2022-09-07T08:26:00.000Z,168.03
2022-09-07T08:28:00.000Z,171.11
2022-09-07T08:30:00.000Z,164.24
2022-09-07T08:32:00.000Z,159.02
2022-09-07T08:34:00.000Z,157.84
2022-09-07T08:36:00.000Z,159.26
2022-09-07T08:38:00.000Z,166.93
2022-09-07T08:40:00.000Z,184.62
2022-09-07T08:42:00.000Z,188.97
2022-09-07T08:44:00.000Z,197.18
2022-09-07T08:46:00.000Z,200.18
2022-09-07T08:48:00.000Z,212.03
2022-09-07T08:50:00.000Z,222.54
2022-09-07T08:52:00.000Z,228.07
2022-09-07T08:54:00.000Z,211.8
2022-09-07T08:56:00.000Z,201.29
2022-09-07T08:58:00.000Z,192.36
2022-09-07T09:00:00.000Z,165.82
2022-09-07T09:02:00.000Z,162.42
2022-09-07T09:04:00.000Z,172.22
2022-09-07T09:06:00.000Z,175.69
2022-09-07T09:08:00.000Z,179.88
2022-09-07T09:10:00.000Z,181.62
2022-09-07T09:12:00.000Z,190.63
2022-09-07T09:14:00.000Z,196.63
2022-09-07T09:16:00.000Z,207.53
2022-09-07T09:18:00.000Z,219.38
2022-09-07T09:20:00.000Z,241.03
2022-09-07T09:22:00.000Z,266.31
2022-09-07T09:24:00.000Z,270.97
2022-09-07T09:26:00.000Z,262.04
2022-09-07T09:28:00.000Z,330.38
2022-09-07T09:30:00.000Z,447.93
2022-09-07T09:32:00.000Z,370.51
2022-09-07T09:34:00.000Z,434.11
2022-09-07T09:36:00.000Z,369.96
2022-09-07T09:38:00.000Z,456.47
2022-09-07T09:40:00.000Z,286.06
2022-09-07T09:42:00.000Z,266.23
2022-09-07T09:44:00.000Z,423.52
2022-09-07T09:46:00.000Z,360.48
2022-09-07T09:48:00.000Z,279.11
2022-09-07T09:50:00.000Z,391.21
2022-09-07T09:52:00.000Z,373.36
2022-09-07T09:54:00.000Z,362.45
2022-09-07T09:56:00.000Z,429.29
2022-09-07T10:00:00.000Z,542.81
2022-09-07T10:04:00.000Z,508.61
2022-09-07T10:06:00.000Z,369.56
2022-09-07T10:08:00.000Z,438.06
2022-09-07T10:10:00.000Z,492.02
2022-09-07T10:12:00.000Z,425.58
2022-09-07T10:14:00.000Z,330.85
2022-09-07T10:16:00.000Z,597.96
2022-09-07T10:18:00.000Z,706.74
2022-09-07T10:20:00.000Z,626.63
2022-09-07T10:22:00.000Z,545.03
2022-09-07T10:24:00.000Z,718.99
2022-09-07T10:26:00.000Z,791.51
2022-09-07T10:28:00.000Z,694.97
2022-09-07T10:30:00.000Z,734.71
2022-09-07T10:32:00.000Z,664.0
2022-09-07T10:34:00.000Z,431.03
2022-09-07T10:36:00.000Z,562.49
2022-09-07T10:38:00.000Z,640.78
2022-09-07T10:40:00.000Z,553.32
2022-09-07T10:42:00.000Z,598.98
2022-09-07T10:44:00.000Z,612.81
2022-09-07T10:46:00.000Z,632.01
2022-09-07T10:48:00.000Z,627.11
2022-09-07T10:52:00.000Z,615.5
2022-09-07T10:56:00.000Z,624.26
2022-09-07T10:58:00.000Z,606.09
2022-09-07T11:00:00.000Z,604.43
2022-09-07T11:02:00.000Z,609.25
2022-09-07T11:04:00.000Z,625.29
2022-09-07T11:06:00.000Z,610.99
2022-09-07T11:08:00.000Z,582.0
2022-09-07T11:10:00.000Z,370.91
2022-09-07T11:12:00.000Z,455.99
2022-09-07T11:14:00.000Z,335.12
2022-09-07T11:16:00.000Z,330.85
2022-09-07T11:18:00.000Z,402.43
2022-09-07T11:20:00.000Z,408.35
2022-09-07T11:22:00.000Z,428.34
2022-09-07T11:24:00.000Z,486.88
2022-09-07T11:26:00.000Z,426.92
2022-09-07T11:28:00.000Z,374.46
2022-09-07T11:30:00.000Z,377.86
2022-09-07T11:32:00.000Z,400.53
2022-09-07T11:34:00.000Z,587.13
2022-09-07T11:36:00.000Z,562.8
2022-09-07T11:38:00.000Z,618.97
2022-09-07T11:40:00.000Z,364.67
2022-09-07T11:42:00.000Z,617.87
2022-09-07T11:44:00.000Z,420.6
2022-09-07T11:46:00.000Z,288.19
2022-09-07T11:48:00.000Z,553.56
2022-09-07T11:50:00.000Z,542.02
2022-09-07T11:52:00.000Z,406.22
2022-09-07T11:54:00.000Z,423.52
2022-09-07T11:56:00.000Z,469.42
2022-09-07T11:58:00.000Z,378.96
2022-09-07T12:00:00.000Z,389.0
2022-09-07T12:02:00.000Z,373.51
2022-09-07T12:04:00.000Z,395.56
2022-09-07T12:06:00.000Z,373.75
2022-09-07T12:08:00.000Z,367.19
2022-09-07T12:10:00.000Z,384.57
2022-09-07T12:12:00.000Z,450.15
2022-09-07T12:14:00.000Z,419.73
2022-09-07T12:16:00.000Z,413.65
2022-09-07T12:18:00.000Z,370.75
2022-09-07T12:20:00.000Z,377.46
2022-09-07T12:22:00.000Z,420.6
2022-09-07T12:24:00.000Z,302.73
2022-09-07T12:26:00.000Z,267.1
2022-09-07T12:28:00.000Z,258.57
2022-09-07T12:30:00.000Z,249.48
2022-09-07T12:32:00.000Z,241.58
2022-09-07T12:34:00.000Z,280.61
2022-09-07T12:36:00.000Z,398.0
2022-09-07T12:38:00.000Z,541.0
2022-09-07T12:40:00.000Z,565.72
2022-09-07T12:44:00.000Z,583.82
2022-09-07T12:46:00.000Z,534.36
2022-09-07T12:48:00.000Z,506.16
2022-09-07T12:50:00.000Z,523.93
2022-09-07T12:52:00.000Z,342.78
2022-09-07T12:54:00.000Z,236.21
2022-09-07T12:56:00.000Z,211.96
2022-09-07T12:58:00.000Z,220.96
2022-09-07T13:00:00.000Z,433.55
2022-09-07T13:02:00.000Z,343.34
2022-09-07T13:04:00.000Z,236.29
2022-09-07T13:06:00.000Z,288.9
2022-09-07T13:08:00.000Z,422.1
2022-09-07T13:10:00.000Z,526.86
2022-09-07T13:12:00.000Z,539.18
2022-09-07T13:14:00.000Z,576.39
2022-09-07T13:16:00.000Z,575.92
2022-09-07T13:18:00.000Z,520.85
2022-09-07T13:20:00.000Z,244.5
2022-09-07T13:22:00.000Z,248.93
2022-09-07T13:24:00.000Z,212.75
2022-09-07T13:26:00.000Z,179.09
2022-09-07T13:28:00.000Z,166.45
2022-09-07T13:30:00.000Z,162.97
2022-09-07T13:32:00.000Z,216.93
2022-09-07T13:34:00.000Z,238.97
2022-09-07T13:36:00.000Z,207.61
2022-09-07T13:38:00.000Z,185.02
2022-09-07T13:40:00.000Z,186.91
2022-09-07T13:42:00.000Z,185.89
2022-09-07T13:44:00.000Z,195.84
2022-09-07T13:46:00.000Z,175.38
2022-09-07T13:48:00.000Z,179.17
2022-09-07T13:50:00.000Z,215.27
2022-09-07T13:52:00.000Z,438.69
2022-09-07T13:54:00.000Z,447.14
2022-09-07T13:56:00.000Z,489.96
2022-09-07T13:58:00.000Z,472.82
2022-09-07T14:00:00.000Z,484.83
2022-09-07T14:02:00.000Z,347.68
2022-09-07T14:04:00.000Z,162.18
2022-09-07T14:06:00.000Z,161.47
2022-09-07T14:08:00.000Z,401.95
2022-09-07T14:10:00.000Z,396.82
2022-09-07T14:12:00.000Z,349.1
2022-09-07T14:14:00.000Z,182.8
2022-09-07T14:16:00.000Z,343.57
2022-09-07T14:18:00.000Z,231.47
2022-09-07T14:20:00.000Z,205.16
2022-09-07T14:22:00.000Z,294.2
2022-09-07T14:24:00.000Z,278.08
2022-09-07T14:26:00.000Z,272.87
2022-09-07T14:28:00.000Z,371.06
2022-09-07T14:30:00.000Z,409.7
2022-09-07T14:32:00.000Z,257.62
2022-09-07T14:34:00.000Z,389.47
2022-09-07T14:36:00.000Z,273.5
2022-09-07T14:38:00.000Z,185.65
2022-09-07T14:40:00.000Z,164.55
2022-09-07T14:42:00.000Z,152.15
2022-09-07T14:44:00.000Z,163.61
2022-09-07T14:46:00.000Z,176.17
2022-09-07T14:48:00.000Z,159.1
2022-09-07T14:50:00.000Z,286.22
2022-09-07T14:52:00.000Z,307.71
2022-09-07T14:54:00.000Z,306.99
2022-09-07T14:56:00.000Z,162.58
2022-09-07T14:58:00.000Z,123.79
2022-09-07T15:00:00.000Z,123.87
2022-09-07T15:02:00.000Z,129.87
2022-09-07T15:04:00.000Z,118.73
2022-09-07T15:06:00.000Z,120.63
2022-09-07T15:08:00.000Z,186.04
2022-09-07T15:10:00.000Z,227.91
2022-09-07T15:12:00.000Z,171.35
2022-09-07T15:14:00.000Z,185.25
2022-09-07T15:16:00.000Z,152.07
2022-09-07T15:20:00.000Z,214.25
2022-09-07T15:22:00.000Z,213.77
2022-09-07T15:24:00.000Z,207.85
2022-09-07T15:26:00.000Z,145.67
2022-09-07T15:28:00.000Z,159.26
2022-09-07T15:42:00.000Z,142.83
2022-09-07T15:44:00.000Z,149.31
2022-09-07T15:46:00.000Z,168.74
2022-09-07T15:48:00.000Z,156.18
2022-09-07T15:50:00.000Z,137.46
2022-09-07T15:52:00.000Z,158.87
2022-09-07T15:54:00.000Z,136.9
2022-09-07T15:56:00.000Z,137.22
2022-09-07T15:58:00.000Z,147.33
2022-09-07T16:00:00.000Z,139.75
2022-09-07T16:02:00.000Z,150.57
2022-09-07T16:04:00.000Z,150.57
2022-09-07T16:06:00.000Z,150.57
2022-09-07T16:08:00.000Z,150.57
2022-09-07T16:10:00.000Z,150.57
2022-09-07T16:14:00.000Z,150.57
2022-09-07T16:16:00.000Z,150.57
2022-09-07T16:18:00.000Z,150.57
2022-09-07T16:20:00.000Z,150.57
2022-09-07T16:22:00.000Z,150.57
2022-09-07T16:24:00.000Z,150.57
2022-09-07T16:26:00.000Z,150.57
2022-09-07T16:28:00.000Z,150.57
2022-09-07T16:30:00.000Z,150.57
2022-09-07T16:34:00.000Z,150.57
2022-09-07T16:36:00.000Z,150.57
2022-09-07T16:40:00.000Z,150.57
2022-09-07T16:42:00.000Z,150.57
2022-09-07T16:44:00.000Z,150.57
2022-09-07T16:46:00.000Z,150.57
2022-09-07T16:48:00.000Z,150.57
2022-09-07T16:50:00.000Z,150.57
2022-09-07T16:52:00.000Z,150.57
2022-09-07T16:54:00.000Z,150.57
2022-09-07T16:56:00.000Z,150.57
2022-09-07T17:00:00.000Z,150.57
2022-09-07T17:02:00.000Z,150.57
2022-09-07T17:04:00.000Z,150.57
2022-09-07T17:06:00.000Z,150.57
2022-09-07T17:08:00.000Z,150.57
2022-09-07T17:10:00.000Z,150.57
2022-09-07T17:12:00.000Z,150.57
2022-09-07T17:14:00.000Z,150.57
2022-09-07T17:16:00.000Z,150.57
2022-09-07T17:18:00.000Z,150.57
2022-09-07T17:20:00.000Z,150.57
2022-09-07T17:22:00.000Z,150.57
2022-09-07T17:24:00.000Z,150.57
2022-09-07T17:26:00.000Z,150.57
2022-09-07T17:28:00.000Z,150.57
2022-09-07T17:30:00.000Z,150.57
2022-09-07T17:32:00.000Z,150.57
2022-09-07T17:34:00.000Z,150.57
2022-09-07T17:36:00.000Z,150.57
2022-09-07T17:38:00.000Z,150.57
2022-09-07T17:40:00.000Z,150.57
2022-09-07T17:42:00.000Z,150.57
2022-09-07T17:44:00.000Z,150.57
2022-09-07T17:46:00.000Z,150.57
2022-09-07T17:48:00.000Z,150.57
2022-09-07T17:50:00.000Z,150.57
2022-09-07T17:52:00.000Z,150.57
2022-09-07T17:54:00.000Z,150.57
2022-09-07T17:56:00.000Z,150.57
2022-09-07T17:58:00.000Z,150.57
2022-09-07T18:00:00.000Z,150.57
2022-09-07T18:02:00.000Z,150.57
2022-09-07T18:04:00.000Z,150.57
2022-09-07T18:06:00.000Z,0.86
2022-09-07T18:08:00.000Z,0.63
2022-09-07T18:10:00.000Z,0.47
2022-09-07T18:12:00.000Z,0.31
2022-09-07T18:14:00.000Z,0.0
2022-09-07T18:16:00.000Z,0.0
2022-09-07T18:18:00.000Z,0.0
2022-09-07T18:20:00.000Z,0.0
2022-09-07T18:22:00.000Z,0.0
2022-09-07T18:24:00.000Z,0.0
2022-09-07T18:26:00.000Z,0.0
2022-09-07T18:30:00.000Z,0.0
2022-09-07T18:32:00.000Z,0.0
2022-09-07T18:34:00.000Z,0.0
2022-09-07T18:36:00.000Z,0.0
2022-09-07T18:38:00.000Z,0.0
2022-09-07T18:40:00.000Z,0.0
2022-09-07T18:42:00.000Z,0.0
2022-09-07T18:44:00.000Z,0.0
2022-09-07T18:46:00.000Z,0.0
2022-09-07T18:48:00.000Z,0.0
2022-09-07T18:50:00.000Z,0.0
2022-09-07T18:54:00.000Z,0.0
2022-09-07T18:56:00.000Z,0.0
2022-09-07T18:58:00.000Z,0.0
2022-09-07T19:00:00.000Z,0.0
2022-09-07T19:02:00.000Z,0.0
2022-09-07T19:04:00.000Z,0.0
2022-09-07T19:06:00.000Z,0.0
2022-09-07T19:08:00.000Z,0.0
2022-09-07T19:10:00.000Z,0.0
2022-09-07T19:12:00.000Z,0.0
2022-09-07T19:14:00.000Z,0.0
2022-09-07T19:16:00.000Z,0.0
2022-09-07T19:18:00.000Z,0.0
2022-09-07T19:20:00.000Z,0.0
2022-09-07T19:22:00.000Z,0.0
2022-09-07T19:24:00.000Z,0.0
2022-09-07T19:26:00.000Z,0.0
2022-09-07T19:28:00.000Z,0.0
2022-09-07T19:30:00.000Z,0.0
2022-09-07T19:32:00.000Z,0.0
2022-09-07T19:34:00.000Z,0.0
2022-09-07T19:36:00.000Z,0.0
2022-09-07T19:38:00.000Z,0.0
2022-09-07T19:40:00.000Z,0.0
2022-09-07T19:42:00.000Z,0.0
2022-09-07T19:44:00.000Z,0.0
2022-09-07T19:46:00.000Z,0.0
2022-09-07T19:48:00.000Z,0.0
2022-09-07T19:50:00.000Z,0.0
2022-09-07T19:52:00.000Z,0.0
2022-09-07T19:54:00.000Z,0.0
2022-09-07T19:56:00.000Z,0.0
2022-09-07T19:58:00.000Z,0.0
2022-09-07T20:00:00.000Z,0.0
2022-09-07T20:02:00.000Z,0.0
2022-09-07T20:04:00.000Z,0.0
2022-09-07T20:06:00.000Z,0.0
2022-09-07T20:08:00.000Z,0.0
2022-09-07T20:10:00.000Z,0.0
2022-09-07T20:12:00.000Z,0.0
2022-09-07T20:14:00.000Z,0.0
2022-09-07T20:16:00.000Z,0.0
2022-09-07T20:18:00.000Z,0.0
2022-09-07T20:20:00.000Z,0.0
2022-09-07T20:22:00.000Z,0.0
2022-09-07T20:24:00.000Z,0.0
2022-09-07T20:26:00.000Z,0.0
2022-09-07T20:28:00.000Z,0.0
2022-09-07T20:30:00.000Z,0.0
2022-09-07T20:32:00.000Z,0.0
2022-09-07T20:34:00.000Z,0.0
2022-09-07T20:36:00.000Z,0.0
2022-09-07T20:38:00.000Z,0.0
2022-09-07T20:40:00.000Z,0.0
2022-09-07T20:42:00.000Z,0.0
2022-09-07T20:44:00.000Z,0.0
2022-09-07T20:46:00.000Z,0.0
2022-09-07T20:48:00.000Z,0.0
2022-09-07T20:50:00.000Z,0.0
2022-09-07T20:52:00.000Z,0.0
2022-09-07T20:54:00.000Z,0.0
2022-09-07T20:56:00.000Z,0.0
2022-09-07T20:58:00.000Z,0.0
2022-09-07T21:00:00.000Z,0.0
2022-09-07T21:02:00.000Z,0.0
2022-09-07T21:04:00.000Z,0.0
2022-09-07T21:06:00.000Z,0.0
2022-09-07T21:08:00.000Z,0.0
2022-09-07T21:10:00.000Z,0.0
2022-09-07T21:12:00.000Z,0.0
2022-09-07T21:14:00.000Z,0.0
2022-09-07T21:16:00.000Z,0.0
2022-09-07T21:18:00.000Z,0.0
2022-09-07T21:20:00.000Z,0.0
2022-09-07T21:22:00.000Z,0.0
2022-09-07T21:24:00.000Z,0.0
2022-09-07T21:26:00.000Z,0.0
2022-09-07T21:28:00.000Z,0.0
2022-09-07T21:30:00.000Z,0.0
2022-09-07T21:32:00.000Z,0.0
2022-09-07T21:34:00.000Z,0.0
2022-09-07T21:36:00.000Z,0.0
2022-09-07T21:38:00.000Z,0.0
2022-09-07T21:40:00.000Z,0.0
2022-09-07T21:42:00.000Z,0.0
2022-09-07T21:44:00.000Z,0.0
2022-09-07T21:46:00.000Z,0.0
2022-09-07T21:48:00.000Z,0.0
2022-09-07T21:50:00.000Z,0.0
2022-09-07T21:52:00.000Z,0.0
2022-09-07T21:54:00.000Z,0.0
2022-09-07T21:56:00.000Z,0.0
2022-09-07T21:58:00.000Z,0.0
2022-09-07T22:00:00.000Z,0.0
2022-09-07T22:02:00.000Z,0.0
2022-09-07T22:04:00.000Z,0.0
2022-09-07T22:06:00.000Z,0.0
2022-09-07T22:08:00.000Z,0.0
2022-09-07T22:10:00.000Z,0.0
2022-09-07T22:12:00.000Z,0.0
2022-09-07T22:14:00.000Z,0.0
2022-09-07T22:16:00.000Z,0.0
2022-09-07T22:18:00.000Z,0.0
2022-09-07T22:20:00.000Z,0.0
2022-09-07T22:22:00.000Z,0.0
2022-09-07T22:24:00.000Z,0.0
2022-09-07T22:26:00.000Z,0.0
2022-09-07T22:28:00.000Z,0.0
2022-09-07T22:30:00.000Z,0.0
2022-09-07T22:32:00.000Z,0.0
2022-09-07T22:34:00.000Z,0.0
2022-09-07T22:36:00.000Z,0.0
2022-09-07T22:38:00.000Z,0.0
2022-09-07T22:40:00.000Z,0.0
2022-09-07T22:42:00.000Z,0.0
2022-09-07T22:44:00.000Z,0.0
2022-09-07T22:46:00.000Z,0.0
2022-09-07T22:48:00.000Z,0.0
2022-09-07T22:50:00.000Z,0.0
2022-09-07T22:52:00.000Z,0.0
2022-09-07T22:54:00.000Z,0.0
2022-09-07T22:56:00.000Z,0.0
2022-09-07T22:58:00.000Z,0.0
2022-09-07T23:00:00.000Z,0.0
2022-09-07T23:02:00.000Z,0.0
2022-09-07T23:04:00.000Z,0.0
2022-09-07T23:06:00.000Z,0.0
2022-09-07T23:08:00.000Z,0.0
2022-09-07T23:10:00.000Z,0.0
2022-09-07T23:12:00.000Z,0.0
2022-09-07T23:14:00.000Z,0.0
2022-09-07T23:16:00.000Z,0.0
2022-09-07T23:18:00.000Z,0.0
2022-09-07T23:20:00.000Z,0.0
2022-09-07T23:22:00.000Z,0.0
2022-09-07T23:24:00.000Z,0.0
2022-09-07T23:26:00.000Z,0.0
2022-09-07T23:28:00.000Z,0.0
2022-09-07T23:30:00.000Z,0.0
2022-09-07T23:32:00.000Z,0.0
2022-09-07T23:34:00.000Z,0.0
2022-09-07T23:36:00.000Z,0.0
2022-09-07T23:38:00.000Z,0.0
2022-09-07T23:40:00.000Z,0.0
2022-09-07T23:42:00.000Z,0.0
2022-09-07T23:44:00.000Z,0.0
2022-09-07T23:46:00.000Z,0.0
2022-09-07T23:48:00.000Z,0.0
2022-09-07T23:50:00.000Z,0.0
2022-09-07T23:52:00.000Z,0.0
2022-09-07T23:54:00.000Z,0.0
2022-09-07T23:56:00.000Z,0.0
2022-09-07T23:58:00.000Z,0.0
